sensor_id;sensor_type;location;lat;lon;timestamp;pressure;altitude;pressure_sealevel;temperature;humidity
19508;BME280;40157;42.566;27.526;2023-04-08T00:01:03;101425.78;;;9.50;73.92
19508;BME280;40157;42.566;27.526;2023-04-08T00:03:04;101433.88;;;9.58;74.17
19508;BME280;40157;42.566;27.526;2023-04-08T00:05:05;101438.38;;;9.62;74.25
19508;BME280;40157;42.566;27.526;2023-04-08T00:07:06;101446.28;;;9.63;74.15
19508;BME280;40157;42.566;27.526;2023-04-08T00:09:06;101417.00;;;9.48;74.05
19508;BME280;40157;42.566;27.526;2023-04-08T00:11:07;101386.00;;;9.33;73.86
19508;BME280;40157;42.566;27.526;2023-04-08T00:13:07;101429.38;;;9.54;73.93
19508;BME280;40157;42.566;27.526;2023-04-08T00:15:08;101415.16;;;9.45;73.77
19508;BME280;40157;42.566;27.526;2023-04-08T00:17:08;101434.91;;;9.63;73.72
19508;BME280;40157;42.566;27.526;2023-04-08T00:19:09;101404.50;;;9.39;73.95
19508;BME280;40157;42.566;27.526;2023-04-08T00:21:10;101435.47;;;9.53;74.00
19508;BME280;40157;42.566;27.526;2023-04-08T00:23:10;101441.44;;;9.49;73.89
19508;BME280;40157;42.566;27.526;2023-04-08T00:25:11;101409.53;;;9.33;74.24
19508;BME280;40157;42.566;27.526;2023-04-08T00:27:11;101408.34;;;9.23;74.27
19508;BME280;40157;42.566;27.526;2023-04-08T00:29:12;101430.47;;;9.33;74.37
19508;BME280;40157;42.566;27.526;2023-04-08T00:31:13;101443.84;;;9.42;74.36
19508;BME280;40157;42.566;27.526;2023-04-08T00:33:13;101418.22;;;9.32;74.57
19508;BME280;40157;42.566;27.526;2023-04-08T00:35:14;101403.13;;;9.23;74.69
19508;BME280;40157;42.566;27.526;2023-04-08T00:37:14;101358.78;;;9.01;74.82
19508;BME280;40157;42.566;27.526;2023-04-08T00:39:15;101437.88;;;9.47;74.82
19508;BME280;40157;42.566;27.526;2023-04-08T00:41:15;101384.66;;;9.19;74.69
19508;BME280;40157;42.566;27.526;2023-04-08T00:43:16;101426.59;;;9.49;75.12
19508;BME280;40157;42.566;27.526;2023-04-08T00:45:19;101440.59;;;9.50;75.03
19508;BME280;40157;42.566;27.526;2023-04-08T00:47:20;101430.19;;;9.51;75.08
19508;BME280;40157;42.566;27.526;2023-04-08T00:49:20;101378.84;;;9.28;75.07
19508;BME280;40157;42.566;27.526;2023-04-08T00:51:21;101392.06;;;9.32;74.96
19508;BME280;40157;42.566;27.526;2023-04-08T00:53:21;101390.19;;;9.28;74.85
19508;BME280;40157;42.566;27.526;2023-04-08T00:55:22;101400.16;;;9.40;75.01
19508;BME280;40157;42.566;27.526;2023-04-08T00:57:22;101416.91;;;9.45;74.70
19508;BME280;40157;42.566;27.526;2023-04-08T00:59:23;101418.91;;;9.54;74.80
19508;BME280;40157;42.566;27.526;2023-04-08T01:06:34;101422.97;;;9.44;73.70
19508;BME280;40157;42.566;27.526;2023-04-08T01:08:38;101426.44;;;9.43;73.50
19508;BME280;40157;42.566;27.526;2023-04-08T01:10:41;101423.56;;;9.35;73.45
19508;BME280;40157;42.566;27.526;2023-04-08T01:12:56;101416.47;;;9.31;73.41
19508;BME280;40157;42.566;27.526;2023-04-08T01:15:04;101408.31;;;9.22;73.26
19508;BME280;40157;42.566;27.526;2023-04-08T01:17:05;101357.22;;;8.80;73.06
19508;BME280;40157;42.566;27.526;2023-04-08T01:19:07;101386.31;;;8.89;73.24
19508;BME280;40157;42.566;27.526;2023-04-08T01:21:11;101397.00;;;8.97;73.24
19508;BME280;40157;42.566;27.526;2023-04-08T01:25:37;101403.09;;;8.96;73.42
19508;BME280;40157;42.566;27.526;2023-04-08T01:27:38;101309.63;;;8.39;73.83
19508;BME280;40157;42.566;27.526;2023-04-08T01:29:40;101356.44;;;8.57;74.06
19508;BME280;40157;42.566;27.526;2023-04-08T01:31:42;101339.56;;;8.47;73.94
19508;BME280;40157;42.566;27.526;2023-04-08T01:33:45;101322.66;;;8.38;74.00
19508;BME280;40157;42.566;27.526;2023-04-08T01:35:46;101388.44;;;8.76;74.13
19508;BME280;40157;42.566;27.526;2023-04-08T01:37:48;101392.75;;;8.74;73.96
19508;BME280;40157;42.566;27.526;2023-04-08T01:39:49;101388.91;;;8.64;74.14
19508;BME280;40157;42.566;27.526;2023-04-08T01:41:52;101400.56;;;8.74;74.29
19508;BME280;40157;42.566;27.526;2023-04-08T01:43:54;101347.00;;;8.37;74.22
19508;BME280;40157;42.566;27.526;2023-04-08T01:45:55;101365.28;;;8.37;74.34
19508;BME280;40157;42.566;27.526;2023-04-08T01:47:57;101345.03;;;8.31;74.15
19508;BME280;40157;42.566;27.526;2023-04-08T01:50:00;101336.16;;;8.26;74.43
19508;BME280;40157;42.566;27.526;2023-04-08T01:52:01;101326.97;;;8.11;74.29
19508;BME280;40157;42.566;27.526;2023-04-08T01:54:02;101402.13;;;8.43;74.52
19508;BME280;40157;42.566;27.526;2023-04-08T01:56:11;101409.34;;;8.50;74.70
19508;BME280;40157;42.566;27.526;2023-04-08T01:58:17;101390.47;;;8.34;74.49
19508;BME280;40157;42.566;27.526;2023-04-08T02:00:22;101376.13;;;8.23;74.49
19508;BME280;40157;42.566;27.526;2023-04-08T02:02:25;101360.63;;;8.04;74.48
19508;BME280;40157;42.566;27.526;2023-04-08T02:04:26;101422.03;;;8.41;74.36
19508;BME280;40157;42.566;27.526;2023-04-08T02:06:27;101384.63;;;8.18;74.51
19508;BME280;40157;42.566;27.526;2023-04-08T02:08:28;101423.59;;;8.36;74.51
19508;BME280;40157;42.566;27.526;2023-04-08T02:10:28;101419.03;;;8.30;74.43
19508;BME280;40157;42.566;27.526;2023-04-08T02:12:29;101412.59;;;8.20;74.57
19508;BME280;40157;42.566;27.526;2023-04-08T02:14:30;101376.16;;;8.01;74.81
19508;BME280;40157;42.566;27.526;2023-04-08T02:16:39;101438.22;;;8.30;74.75
19508;BME280;40157;42.566;27.526;2023-04-08T02:18:49;101426.72;;;8.25;74.59
19508;BME280;40157;42.566;27.526;2023-04-08T02:21:01;101419.81;;;8.27;74.18
19508;BME280;40157;42.566;27.526;2023-04-08T02:23:12;101384.13;;;8.04;74.27
19508;BME280;40157;42.566;27.526;2023-04-08T02:25:16;101378.66;;;7.97;74.17
19508;BME280;40157;42.566;27.526;2023-04-08T02:27:17;101423.03;;;8.20;74.02
19508;BME280;40157;42.566;27.526;2023-04-08T02:29:18;101406.06;;;8.09;74.08
19508;BME280;40157;42.566;27.526;2023-04-08T02:31:20;101418.31;;;8.10;74.22
19508;BME280;40157;42.566;27.526;2023-04-08T02:33:21;101381.56;;;7.81;74.38
19508;BME280;40157;42.566;27.526;2023-04-08T02:35:22;101422.09;;;7.95;74.59
19508;BME280;40157;42.566;27.526;2023-04-08T02:37:23;101426.44;;;7.95;74.45
19508;BME280;40157;42.566;27.526;2023-04-08T02:39:33;101416.44;;;7.83;74.65
19508;BME280;40157;42.566;27.526;2023-04-08T02:41:33;101386.66;;;7.55;74.69
19508;BME280;40157;42.566;27.526;2023-04-08T02:43:34;101408.97;;;7.70;75.09
19508;BME280;40157;42.566;27.526;2023-04-08T02:45:40;101407.09;;;7.67;75.15
19508;BME280;40157;42.566;27.526;2023-04-08T02:47:41;101409.44;;;7.59;75.24
19508;BME280;40157;42.566;27.526;2023-04-08T02:49:41;101405.09;;;7.60;75.29
19508;BME280;40157;42.566;27.526;2023-04-08T02:51:42;101365.78;;;7.33;75.57
19508;BME280;40157;42.566;27.526;2023-04-08T02:53:43;101361.13;;;7.26;75.67
19508;BME280;40157;42.566;27.526;2023-04-08T02:55:44;101397.56;;;7.45;75.86
19508;BME280;40157;42.566;27.526;2023-04-08T02:57:46;101361.97;;;7.25;76.09
19508;BME280;40157;42.566;27.526;2023-04-08T02:59:46;101362.53;;;7.17;76.77
19508;BME280;40157;42.566;27.526;2023-04-08T03:01:47;101401.94;;;7.46;76.81
19508;BME280;40157;42.566;27.526;2023-04-08T03:03:47;101440.84;;;7.63;76.91
19508;BME280;40157;42.566;27.526;2023-04-08T03:05:48;101414.03;;;7.44;76.84
19508;BME280;40157;42.566;27.526;2023-04-08T03:07:48;101344.06;;;7.11;77.16
19508;BME280;40157;42.566;27.526;2023-04-08T03:09:49;101437.34;;;7.62;77.15
19508;BME280;40157;42.566;27.526;2023-04-08T03:11:50;101424.91;;;7.55;76.93
19508;BME280;40157;42.566;27.526;2023-04-08T03:13:53;101424.03;;;7.54;77.13
19508;BME280;40157;42.566;27.526;2023-04-08T03:15:54;101401.75;;;7.41;77.18
19508;BME280;40157;42.566;27.526;2023-04-08T03:17:55;101452.38;;;7.68;77.43
19508;BME280;40157;42.566;27.526;2023-04-08T03:19:55;101420.56;;;7.55;77.45
19508;BME280;40157;42.566;27.526;2023-04-08T03:21:55;101396.47;;;7.40;77.48
19508;BME280;40157;42.566;27.526;2023-04-08T03:23:56;101399.22;;;7.43;77.38
19508;BME280;40157;42.566;27.526;2023-04-08T03:25:56;101449.88;;;7.71;77.60
19508;BME280;40157;42.566;27.526;2023-04-08T03:27:57;101442.16;;;7.74;77.60
19508;BME280;40157;42.566;27.526;2023-04-08T03:29:58;101440.09;;;7.65;77.72
19508;BME280;40157;42.566;27.526;2023-04-08T03:31:58;101456.94;;;7.73;77.39
19508;BME280;40157;42.566;27.526;2023-04-08T03:33:58;101418.69;;;7.51;77.60
19508;BME280;40157;42.566;27.526;2023-04-08T03:35:59;101414.22;;;7.49;77.62
19508;BME280;40157;42.566;27.526;2023-04-08T03:40:10;101380.91;;;7.20;77.75
19508;BME280;40157;42.566;27.526;2023-04-08T03:42:11;101441.81;;;7.65;77.52
19508;BME280;40157;42.566;27.526;2023-04-08T03:44:11;101440.81;;;7.61;77.71
19508;BME280;40157;42.566;27.526;2023-04-08T03:46:12;101407.84;;;7.42;77.38
19508;BME280;40157;42.566;27.526;2023-04-08T03:48:12;101415.09;;;7.49;77.38
19508;BME280;40157;42.566;27.526;2023-04-08T03:50:13;101453.19;;;7.67;77.75
19508;BME280;40157;42.566;27.526;2023-04-08T03:52:13;101380.44;;;7.31;77.74
19508;BME280;40157;42.566;27.526;2023-04-08T03:54:13;101469.47;;;7.82;77.57
19508;BME280;40157;42.566;27.526;2023-04-08T03:56:14;101454.13;;;7.69;77.56
19508;BME280;40157;42.566;27.526;2023-04-08T03:58:15;101412.53;;;7.51;77.57
19508;BME280;40157;42.566;27.526;2023-04-08T04:00:16;101486.31;;;7.90;77.72
19508;BME280;40157;42.566;27.526;2023-04-08T04:02:16;101466.97;;;7.85;77.31
19508;BME280;40157;42.566;27.526;2023-04-08T04:04:17;101450.19;;;7.78;76.98
19508;BME280;40157;42.566;27.526;2023-04-08T04:06:18;101491.78;;;7.96;76.99
19508;BME280;40157;42.566;27.526;2023-04-08T04:08:18;101482.88;;;7.91;76.78
19508;BME280;40157;42.566;27.526;2023-04-08T04:10:18;101474.00;;;7.86;76.92
19508;BME280;40157;42.566;27.526;2023-04-08T04:12:19;101424.06;;;7.56;76.94
19508;BME280;40157;42.566;27.526;2023-04-08T04:14:20;101454.22;;;7.70;76.76
19508;BME280;40157;42.566;27.526;2023-04-08T04:16:21;101474.88;;;7.87;76.92
19508;BME280;40157;42.566;27.526;2023-04-08T04:18:21;101486.19;;;7.87;76.89
19508;BME280;40157;42.566;27.526;2023-04-08T04:20:22;101488.31;;;7.97;77.01
19508;BME280;40157;42.566;27.526;2023-04-08T04:22:23;101492.78;;;8.00;77.47
19508;BME280;40157;42.566;27.526;2023-04-08T04:24:23;101488.22;;;7.94;77.88
19508;BME280;40157;42.566;27.526;2023-04-08T04:26:23;101497.00;;;7.96;78.26
19508;BME280;40157;42.566;27.526;2023-04-08T04:28:24;101474.13;;;7.89;78.58
19508;BME280;40157;42.566;27.526;2023-04-08T04:30:25;101474.13;;;7.91;79.15
19508;BME280;40157;42.566;27.526;2023-04-08T04:32:26;101471.66;;;7.94;79.38
19508;BME280;40157;42.566;27.526;2023-04-08T04:34:26;101506.31;;;8.12;79.86
19508;BME280;40157;42.566;27.526;2023-04-08T04:36:27;101464.72;;;7.94;79.79
19508;BME280;40157;42.566;27.526;2023-04-08T04:38:27;101461.28;;;7.95;80.16
19508;BME280;40157;42.566;27.526;2023-04-08T04:40:28;101494.50;;;8.22;80.58
19508;BME280;40157;42.566;27.526;2023-04-08T04:42:28;101473.41;;;8.16;80.88
19508;BME280;40157;42.566;27.526;2023-04-08T04:44:29;101476.41;;;8.27;81.11
19508;BME280;40157;42.566;27.526;2023-04-08T04:46:29;101496.34;;;8.47;81.42
19508;BME280;40157;42.566;27.526;2023-04-08T04:48:30;101448.66;;;8.30;81.60
19508;BME280;40157;42.566;27.526;2023-04-08T04:50:30;101472.00;;;8.48;81.87
19508;BME280;40157;42.566;27.526;2023-04-08T04:52:31;101482.91;;;8.61;82.05
19508;BME280;40157;42.566;27.526;2023-04-08T04:54:31;101446.88;;;8.52;82.16
19508;BME280;40157;42.566;27.526;2023-04-08T04:56:32;101482.50;;;8.74;81.90
19508;BME280;40157;42.566;27.526;2023-04-08T04:58:32;101466.06;;;8.77;82.01
19508;BME280;40157;42.566;27.526;2023-04-08T05:00:32;101459.19;;;8.80;81.95
19508;BME280;40157;42.566;27.526;2023-04-08T05:02:33;101492.97;;;9.24;87.62
19508;BME280;40157;42.566;27.526;2023-04-08T05:04:33;101505.09;;;10.02;92.54
19508;BME280;40157;42.566;27.526;2023-04-08T05:06:34;101507.75;;;10.61;96.49
19508;BME280;40157;42.566;27.526;2023-04-08T05:08:34;101514.91;;;10.99;97.01
19508;BME280;40157;42.566;27.526;2023-04-08T05:10:35;101501.69;;;11.27;96.18
19508;BME280;40157;42.566;27.526;2023-04-08T05:12:35;101511.16;;;11.57;93.76
19508;BME280;40157;42.566;27.526;2023-04-08T05:14:37;101509.94;;;11.78;91.58
19508;BME280;40157;42.566;27.526;2023-04-08T05:16:38;101528.59;;;11.90;88.64
19508;BME280;40157;42.566;27.526;2023-04-08T05:18:39;101520.50;;;11.81;85.72
19508;BME280;40157;42.566;27.526;2023-04-08T05:20:39;101520.25;;;11.70;83.06
19508;BME280;40157;42.566;27.526;2023-04-08T05:22:40;101512.03;;;11.56;80.44
19508;BME280;40157;42.566;27.526;2023-04-08T05:24:41;101536.72;;;11.63;78.53
19508;BME280;40157;42.566;27.526;2023-04-08T05:26:42;101518.16;;;11.57;79.08
19508;BME280;40157;42.566;27.526;2023-04-08T05:28:42;101529.72;;;11.63;78.21
19508;BME280;40157;42.566;27.526;2023-04-08T05:30:49;101532.28;;;11.62;77.38
19508;BME280;40157;42.566;27.526;2023-04-08T05:32:50;101542.00;;;11.64;76.56
19508;BME280;40157;42.566;27.526;2023-04-08T05:34:50;101517.03;;;11.47;76.11
19508;BME280;40157;42.566;27.526;2023-04-08T05:36:51;101523.38;;;11.55;75.59
19508;BME280;40157;42.566;27.526;2023-04-08T05:38:51;101521.53;;;11.51;75.08
19508;BME280;40157;42.566;27.526;2023-04-08T05:40:52;101558.09;;;11.78;75.26
19508;BME280;40157;42.566;27.526;2023-04-08T05:42:52;101545.72;;;11.73;75.14
19508;BME280;40157;42.566;27.526;2023-04-08T05:44:53;101538.78;;;11.76;74.99
19508;BME280;40157;42.566;27.526;2023-04-08T05:46:53;101561.84;;;11.88;74.83
19508;BME280;40157;42.566;27.526;2023-04-08T05:48:55;101561.09;;;11.92;74.83
19508;BME280;40157;42.566;27.526;2023-04-08T05:50:55;101562.94;;;11.96;74.86
19508;BME280;40157;42.566;27.526;2023-04-08T05:52:56;101559.44;;;11.96;74.79
19508;BME280;40157;42.566;27.526;2023-04-08T05:54:56;101505.16;;;11.61;74.76
19508;BME280;40157;42.566;27.526;2023-04-08T05:56:57;101550.41;;;11.86;74.98
19508;BME280;40157;42.566;27.526;2023-04-08T05:58:57;101553.03;;;11.86;75.06
19508;BME280;40157;42.566;27.526;2023-04-08T06:00:58;101554.66;;;11.81;75.12
19508;BME280;40157;42.566;27.526;2023-04-08T06:02:58;101546.63;;;11.75;75.06
19508;BME280;40157;42.566;27.526;2023-04-08T06:04:59;101544.72;;;11.68;75.42
19508;BME280;40157;42.566;27.526;2023-04-08T06:07:00;101568.72;;;11.83;75.27
19508;BME280;40157;42.566;27.526;2023-04-08T06:09:02;101544.00;;;11.75;75.18
19508;BME280;40157;42.566;27.526;2023-04-08T06:11:02;101568.09;;;11.92;75.24
19508;BME280;40157;42.566;27.526;2023-04-08T06:13:06;101561.69;;;11.82;75.32
19508;BME280;40157;42.566;27.526;2023-04-08T06:15:07;101571.66;;;11.95;75.19
19508;BME280;40157;42.566;27.526;2023-04-08T06:17:08;101563.81;;;11.97;75.07
19508;BME280;40157;42.566;27.526;2023-04-08T06:19:08;101533.56;;;11.78;74.94
19508;BME280;40157;42.566;27.526;2023-04-08T06:21:09;101567.41;;;12.00;75.26
19508;BME280;40157;42.566;27.526;2023-04-08T06:23:10;101542.53;;;11.86;75.05
19508;BME280;40157;42.566;27.526;2023-04-08T06:25:11;101577.94;;;12.00;75.17
19508;BME280;40157;42.566;27.526;2023-04-08T06:27:11;101555.78;;;11.91;75.20
19508;BME280;40157;42.566;27.526;2023-04-08T06:29:12;101562.13;;;11.97;74.96
19508;BME280;40157;42.566;27.526;2023-04-08T06:31:12;101585.81;;;12.00;74.80
19508;BME280;40157;42.566;27.526;2023-04-08T06:33:13;101579.63;;;11.98;74.72
19508;BME280;40157;42.566;27.526;2023-04-08T06:35:13;101552.88;;;11.80;74.65
19508;BME280;40157;42.566;27.526;2023-04-08T06:37:14;101585.72;;;11.96;74.86
19508;BME280;40157;42.566;27.526;2023-04-08T06:39:14;101586.53;;;11.93;75.09
19508;BME280;40157;42.566;27.526;2023-04-08T06:41:16;101532.22;;;11.59;75.12
19508;BME280;40157;42.566;27.526;2023-04-08T06:43:16;101509.06;;;11.42;75.40
19508;BME280;40157;42.566;27.526;2023-04-08T06:45:17;101542.00;;;11.64;75.54
19508;BME280;40157;42.566;27.526;2023-04-08T06:47:17;101505.63;;;11.45;75.57
19508;BME280;40157;42.566;27.526;2023-04-08T06:49:17;101535.84;;;11.64;75.59
19508;BME280;40157;42.566;27.526;2023-04-08T06:51:18;101567.84;;;11.82;75.86
19508;BME280;40157;42.566;27.526;2023-04-08T06:53:18;101559.75;;;11.75;76.37
19508;BME280;40157;42.566;27.526;2023-04-08T06:55:19;101563.47;;;11.83;76.11
19508;BME280;40157;42.566;27.526;2023-04-08T06:57:19;101552.72;;;11.74;76.10
19508;BME280;40157;42.566;27.526;2023-04-08T06:59:20;101547.38;;;11.69;76.32
19508;BME280;40157;42.566;27.526;2023-04-08T07:01:20;101568.72;;;11.83;76.44
19508;BME280;40157;42.566;27.526;2023-04-08T07:03:22;101565.25;;;11.85;76.44
19508;BME280;40157;42.566;27.526;2023-04-08T07:05:23;101545.06;;;11.83;76.48
19508;BME280;40157;42.566;27.526;2023-04-08T07:07:23;101557.38;;;11.84;76.66
19508;BME280;40157;42.566;27.526;2023-04-08T07:09:23;101540.41;;;11.71;76.65
19508;BME280;40157;42.566;27.526;2023-04-08T07:11:24;101561.84;;;11.88;76.47
19508;BME280;40157;42.566;27.526;2023-04-08T07:13:25;101485.69;;;11.53;76.37
19508;BME280;40157;42.566;27.526;2023-04-08T07:15:25;101554.75;;;11.85;76.33
19508;BME280;40157;42.566;27.526;2023-04-08T07:17:26;101543.25;;;11.80;76.32
19508;BME280;40157;42.566;27.526;2023-04-08T07:19:27;101531.56;;;11.68;76.94
19508;BME280;40157;42.566;27.526;2023-04-08T07:21:27;101544.84;;;11.74;77.49
19508;BME280;40157;42.566;27.526;2023-04-08T07:23:29;101537.97;;;11.79;77.21
19508;BME280;40157;42.566;27.526;2023-04-08T07:25:30;101547.78;;;11.86;76.87
19508;BME280;40157;42.566;27.526;2023-04-08T07:27:34;101571.91;;;12.05;76.86
19508;BME280;40157;42.566;27.526;2023-04-08T07:29:35;101584.22;;;12.07;75.97
19508;BME280;40157;42.566;27.526;2023-04-08T07:31:36;101574.38;;;11.98;75.51
19508;BME280;40157;42.566;27.526;2023-04-08T07:33:36;101586.69;;;11.99;75.46
19508;BME280;40157;42.566;27.526;2023-04-08T07:35:37;101595.72;;;12.11;74.98
19508;BME280;40157;42.566;27.526;2023-04-08T07:37:37;101582.38;;;12.03;73.77
19508;BME280;40157;42.566;27.526;2023-04-08T07:39:38;101529.78;;;11.66;73.30
19508;BME280;40157;42.566;27.526;2023-04-08T07:41:38;101608.88;;;12.12;73.57
19508;BME280;40157;42.566;27.526;2023-04-08T07:43:39;101596.56;;;12.10;72.84
19508;BME280;40157;42.566;27.526;2023-04-08T07:45:39;101596.44;;;12.05;72.72
19508;BME280;40157;42.566;27.526;2023-04-08T07:47:40;101604.28;;;12.03;71.62
19508;BME280;40157;42.566;27.526;2023-04-08T07:49:40;101598.13;;;12.01;71.19
19508;BME280;40157;42.566;27.526;2023-04-08T07:51:41;101591.84;;;11.96;71.61
19508;BME280;40157;42.566;27.526;2023-04-08T07:53:41;101610.28;;;11.98;71.53
19508;BME280;40157;42.566;27.526;2023-04-08T07:55:42;101627.94;;;12.03;71.09
19508;BME280;40157;42.566;27.526;2023-04-08T07:57:42;101604.88;;;11.92;71.13
19508;BME280;40157;42.566;27.526;2023-04-08T07:59:43;101542.91;;;11.66;71.33
19508;BME280;40157;42.566;27.526;2023-04-08T08:01:43;101593.69;;;12.00;71.51
19508;BME280;40157;42.566;27.526;2023-04-08T08:03:44;101539.50;;;11.69;69.80
19508;BME280;40157;42.566;27.526;2023-04-08T08:05:45;101617.47;;;12.05;70.71
19508;BME280;40157;42.566;27.526;2023-04-08T08:07:45;101634.34;;;12.15;70.63
19508;BME280;40157;42.566;27.526;2023-04-08T08:09:45;101584.88;;;11.98;71.51
19508;BME280;40157;42.566;27.526;2023-04-08T08:11:46;101544.16;;;11.81;71.94
19508;BME280;40157;42.566;27.526;2023-04-08T08:13:49;101545.44;;;11.97;74.47
19508;BME280;40157;42.566;27.526;2023-04-08T08:15:52;101532.84;;;11.85;73.01
19508;BME280;40157;42.566;27.526;2023-04-08T08:17:53;101499.41;;;11.78;72.95
19508;BME280;40157;42.566;27.526;2023-04-08T08:19:53;101632.59;;;12.52;72.90
19508;BME280;40157;42.566;27.526;2023-04-08T08:21:53;101505.91;;;11.92;73.21
19508;BME280;40157;42.566;27.526;2023-04-08T08:23:55;101498.88;;;11.91;72.73
19508;BME280;40157;42.566;27.526;2023-04-08T08:26:03;101623.28;;;12.66;72.82
19508;BME280;40157;42.566;27.526;2023-04-08T08:28:04;101638.22;;;12.69;72.57
19508;BME280;40157;42.566;27.526;2023-04-08T08:30:04;101630.50;;;12.76;72.33
19508;BME280;40157;42.566;27.526;2023-04-08T08:32:05;101636.66;;;12.77;72.12
19508;BME280;40157;42.566;27.526;2023-04-08T08:34:06;101579.03;;;12.48;71.49
19508;BME280;40157;42.566;27.526;2023-04-08T08:36:06;101628.88;;;12.82;71.34
19508;BME280;40157;42.566;27.526;2023-04-08T08:38:06;101609.38;;;12.73;70.48
19508;BME280;40157;42.566;27.526;2023-04-08T08:40:08;101624.63;;;12.88;70.52
19508;BME280;40157;42.566;27.526;2023-04-08T08:42:24;101616.72;;;12.88;70.42
19508;BME280;40157;42.566;27.526;2023-04-08T08:44:25;101613.16;;;12.85;70.49
19508;BME280;40157;42.566;27.526;2023-04-08T08:46:26;101607.88;;;12.85;70.44
19508;BME280;40157;42.566;27.526;2023-04-08T08:48:26;101599.09;;;12.84;70.65
19508;BME280;40157;42.566;27.526;2023-04-08T08:50:27;101569.78;;;12.67;70.83
19508;BME280;40157;42.566;27.526;2023-04-08T08:52:27;101623.25;;;13.06;70.63
19508;BME280;40157;42.566;27.526;2023-04-08T08:54:28;101614.25;;;12.96;69.32
19508;BME280;40157;42.566;27.526;2023-04-08T08:56:28;101623.19;;;13.03;68.91
19508;BME280;40157;42.566;27.526;2023-04-08T08:58:29;101571.78;;;12.77;69.71
19508;BME280;40157;42.566;27.526;2023-04-08T09:00:31;101621.50;;;13.06;69.69
19508;BME280;40157;42.566;27.526;2023-04-08T09:02:32;101598.22;;;12.85;68.67
19508;BME280;40157;42.566;27.526;2023-04-08T09:04:32;101549.69;;;12.69;68.71
19508;BME280;40157;42.566;27.526;2023-04-08T09:06:33;101592.31;;;12.97;68.62
19508;BME280;40157;42.566;27.526;2023-04-08T09:08:36;101608.31;;;13.06;68.66
19508;BME280;40157;42.566;27.526;2023-04-08T09:10:37;101602.28;;;13.12;68.31
19508;BME280;40157;42.566;27.526;2023-04-08T09:12:52;101548.19;;;12.84;67.53
19508;BME280;40157;42.566;27.526;2023-04-08T09:15:08;101609.53;;;13.22;67.53
19508;BME280;40157;42.566;27.526;2023-04-08T09:17:09;101609.59;;;13.27;66.51
19508;BME280;40157;42.566;27.526;2023-04-08T09:19:10;101575.13;;;13.14;67.26
19508;BME280;40157;42.566;27.526;2023-04-08T09:21:12;101613.50;;;13.44;67.76
19508;BME280;40157;42.566;27.526;2023-04-08T09:23:13;101520.44;;;13.00;68.08
19508;BME280;40157;42.566;27.526;2023-04-08T09:25:42;101602.38;;;13.61;67.66
19508;BME280;40157;42.566;27.526;2023-04-08T09:27:42;101590.81;;;13.53;67.39
19508;BME280;40157;42.566;27.526;2023-04-08T09:29:43;101606.84;;;13.66;67.00
19508;BME280;40157;42.566;27.526;2023-04-08T09:31:43;101579.50;;;13.60;67.54
19508;BME280;40157;42.566;27.526;2023-04-08T09:33:44;101611.44;;;13.78;66.89
19508;BME280;40157;42.566;27.526;2023-04-08T09:35:45;101577.03;;;13.67;66.31
19508;BME280;40157;42.566;27.526;2023-04-08T09:37:46;101602.00;;;13.91;66.66
19508;BME280;40157;42.566;27.526;2023-04-08T09:39:47;101600.34;;;13.96;65.79
19508;BME280;40157;42.566;27.526;2023-04-08T09:41:49;101598.63;;;14.00;65.59
19508;BME280;40157;42.566;27.526;2023-04-08T09:43:52;101525.97;;;13.61;65.74
19508;BME280;40157;42.566;27.526;2023-04-08T09:45:54;101596.09;;;14.06;65.69
19508;BME280;40157;42.566;27.526;2023-04-08T09:48:00;101598.91;;;14.18;65.34
19508;BME280;40157;42.566;27.526;2023-04-08T09:50:05;101583.88;;;14.11;65.84
19508;BME280;40157;42.566;27.526;2023-04-08T09:52:20;101599.97;;;14.30;65.95
19508;BME280;40157;42.566;27.526;2023-04-08T09:54:21;101598.97;;;14.21;64.90
19508;BME280;40157;42.566;27.526;2023-04-08T09:56:23;101585.84;;;14.24;65.00
19508;BME280;40157;42.566;27.526;2023-04-08T09:58:33;101580.66;;;14.34;66.21
19508;BME280;40157;42.566;27.526;2023-04-08T10:00:41;101607.25;;;14.46;65.77
19508;BME280;40157;42.566;27.526;2023-04-08T10:03:17;101611.66;;;14.46;64.09
19508;BME280;40157;42.566;27.526;2023-04-08T10:05:23;101609.06;;;14.50;64.20
19508;BME280;40157;42.566;27.526;2023-04-08T10:07:24;101604.66;;;14.49;63.84
19508;BME280;40157;42.566;27.526;2023-04-08T10:09:26;101621.63;;;14.67;62.55
19508;BME280;40157;42.566;27.526;2023-04-08T10:11:28;101624.34;;;14.71;62.00
19508;BME280;40157;42.566;27.526;2023-04-08T10:13:30;101589.00;;;14.60;60.70
19508;BME280;40157;42.566;27.526;2023-04-08T10:15:32;101597.03;;;14.68;60.82
19508;BME280;40157;42.566;27.526;2023-04-08T10:17:33;101574.16;;;14.68;60.30
19508;BME280;40157;42.566;27.526;2023-04-08T10:19:38;101590.19;;;14.85;59.81
19508;BME280;40157;42.566;27.526;2023-04-08T10:21:42;101617.72;;;15.04;59.08
19508;BME280;40157;42.566;27.526;2023-04-08T10:23:55;101613.41;;;15.11;59.17
19508;BME280;40157;42.566;27.526;2023-04-08T10:25:56;101601.03;;;15.07;60.15
19508;BME280;40157;42.566;27.526;2023-04-08T10:27:58;101605.56;;;15.20;59.74
19508;BME280;40157;42.566;27.526;2023-04-08T10:29:58;101610.84;;;15.20;60.97
19508;BME280;40157;42.566;27.526;2023-04-08T10:31:59;101598.53;;;15.17;61.06
19508;BME280;40157;42.566;27.526;2023-04-08T10:34:24;101570.19;;;15.04;60.35
19508;BME280;40157;42.566;27.526;2023-04-08T10:36:25;101579.94;;;15.10;61.80
19508;BME280;40157;42.566;27.526;2023-04-08T10:38:27;101595.97;;;15.28;60.64
19508;BME280;40157;42.566;27.526;2023-04-08T10:40:27;101580.09;;;15.22;60.47
19508;BME280;40157;42.566;27.526;2023-04-08T10:42:28;101570.38;;;15.21;61.69